sensor_id;sensor_type;location;lat;lon;timestamp;temperature;humidity
44513;DHT22;30219;50.588;9.504;2023-05-10T00:00:09;14.40;99.90
44513;DHT22;30219;50.588;9.504;2023-05-10T00:02:34;14.40;99.90
44513;DHT22;30219;50.588;9.504;2023-05-10T00:05:00;14.40;99.90
44513;DHT22;30219;50.588;9.504;2023-05-10T00:07:26;14.40;99.90
44513;DHT22;30219;50.588;9.504;2023-05-10T00:09:51;14.40;99.90
44513;DHT22;30219;50.588;9.504;2023-05-10T00:12:17;14.40;99.90
44513;DHT22;30219;50.588;9.504;2023-05-10T00:14:42;14.40;99.90
44513;DHT22;30219;50.588;9.504;2023-05-10T00:17:07;14.40;99.90
44513;DHT22;30219;50.588;9.504;2023-05-10T00:19:33;14.40;99.90
44513;DHT22;30219;50.588;9.504;2023-05-10T00:21:58;14.40;99.90
44513;DHT22;30219;50.588;9.504;2023-05-10T00:24:24;14.30;99.90
44513;DHT22;30219;50.588;9.504;2023-05-10T00:26:50;14.20;99.90
44513;DHT22;30219;50.588;9.504;2023-05-10T00:29:15;14.10;99.90
44513;DHT22;30219;50.588;9.504;2023-05-10T00:31:41;14.20;99.90
44513;DHT22;30219;50.588;9.504;2023-05-10T00:34:06;14.20;99.90
44513;DHT22;30219;50.588;9.504;2023-05-10T00:36:32;14.20;99.90
44513;DHT22;30219;50.588;9.504;2023-05-10T00:38:57;14.30;99.90
44513;DHT22;30219;50.588;9.504;2023-05-10T00:41:23;14.40;99.90
44513;DHT22;30219;50.588;9.504;2023-05-10T00:43:48;14.40;99.90
44513;DHT22;30219;50.588;9.504;2023-05-10T00:46:14;14.30;99.90
44513;DHT22;30219;50.588;9.504;2023-05-10T00:48:39;14.30;99.90
44513;DHT22;30219;50.588;9.504;2023-05-10T00:51:05;14.30;99.90
44513;DHT22;30219;50.588;9.504;2023-05-10T00:53:31;14.30;99.90
44513;DHT22;30219;50.588;9.504;2023-05-10T00:55:57;14.30;99.90
44513;DHT22;30219;50.588;9.504;2023-05-10T00:58:23;14.30;99.90
44513;DHT22;30219;50.588;9.504;2023-05-10T01:00:49;14.40;99.90
44513;DHT22;30219;50.588;9.504;2023-05-10T01:03:14;14.40;99.90
44513;DHT22;30219;50.588;9.504;2023-05-10T01:05:40;14.40;99.90
44513;DHT22;30219;50.588;9.504;2023-05-10T01:08:06;14.40;99.90
44513;DHT22;30219;50.588;9.504;2023-05-10T01:10:32;14.30;99.90
44513;DHT22;30219;50.588;9.504;2023-05-10T01:12:57;14.30;99.90
44513;DHT22;30219;50.588;9.504;2023-05-10T01:15:24;14.30;99.90
44513;DHT22;30219;50.588;9.504;2023-05-10T01:17:49;14.20;99.90
44513;DHT22;30219;50.588;9.504;2023-05-10T01:20:15;14.20;99.90
44513;DHT22;30219;50.588;9.504;2023-05-10T01:22:52;14.20;99.90
44513;DHT22;30219;50.588;9.504;2023-05-10T01:28:14;14.20;99.90
44513;DHT22;30219;50.588;9.504;2023-05-10T01:36:30;14.40;99.90
44513;DHT22;30219;50.588;9.504;2023-05-10T01:39:14;14.40;99.90
44513;DHT22;30219;50.588;9.504;2023-05-10T01:41:47;14.40;99.90
44513;DHT22;30219;50.588;9.504;2023-05-10T01:46:39;14.40;99.90
44513;DHT22;30219;50.588;9.504;2023-05-10T01:49:09;14.40;99.90
44513;DHT22;30219;50.588;9.504;2023-05-10T01:51:42;14.30;99.90
44513;DHT22;30219;50.588;9.504;2023-05-10T01:54:09;14.30;99.90
44513;DHT22;30219;50.588;9.504;2023-05-10T01:56:37;14.30;99.90
44513;DHT22;30219;50.588;9.504;2023-05-10T01:59:04;14.20;99.90
44513;DHT22;30219;50.588;9.504;2023-05-10T02:01:31;14.20;99.90
44513;DHT22;30219;50.588;9.504;2023-05-10T02:03:57;14.20;99.90
44513;DHT22;30219;50.588;9.504;2023-05-10T02:06:23;14.20;99.90
44513;DHT22;30219;50.588;9.504;2023-05-10T02:08:49;14.30;99.90
44513;DHT22;30219;50.588;9.504;2023-05-10T02:11:15;14.30;99.90
44513;DHT22;30219;50.588;9.504;2023-05-10T02:13:41;14.40;99.90
44513;DHT22;30219;50.588;9.504;2023-05-10T02:16:08;14.40;99.90
44513;DHT22;30219;50.588;9.504;2023-05-10T02:18:34;14.20;99.90
44513;DHT22;30219;50.588;9.504;2023-05-10T02:21:01;14.00;99.90
44513;DHT22;30219;50.588;9.504;2023-05-10T02:23:27;13.90;99.90
44513;DHT22;30219;50.588;9.504;2023-05-10T02:25:53;13.90;99.90
44513;DHT22;30219;50.588;9.504;2023-05-10T02:28:19;13.90;99.90
44513;DHT22;30219;50.588;9.504;2023-05-10T02:30:46;13.80;99.90
44513;DHT22;30219;50.588;9.504;2023-05-10T02:33:12;13.80;99.90
44513;DHT22;30219;50.588;9.504;2023-05-10T02:35:38;13.70;99.90
44513;DHT22;30219;50.588;9.504;2023-05-10T02:38:04;13.70;99.90
44513;DHT22;30219;50.588;9.504;2023-05-10T02:40:31;13.60;99.90
44513;DHT22;30219;50.588;9.504;2023-05-10T02:42:57;13.50;99.90
44513;DHT22;30219;50.588;9.504;2023-05-10T02:45:27;13.40;99.90
44513;DHT22;30219;50.588;9.504;2023-05-10T02:47:54;13.40;99.90
44513;DHT22;30219;50.588;9.504;2023-05-10T02:50:20;13.40;99.90
44513;DHT22;30219;50.588;9.504;2023-05-10T02:52:47;13.40;99.90
44513;DHT22;30219;50.588;9.504;2023-05-10T02:55:14;13.40;99.90
44513;DHT22;30219;50.588;9.504;2023-05-10T02:57:41;13.40;99.90
44513;DHT22;30219;50.588;9.504;2023-05-10T03:00:07;13.30;99.90
44513;DHT22;30219;50.588;9.504;2023-05-10T03:02:33;13.30;99.90
44513;DHT22;30219;50.588;9.504;2023-05-10T03:04:59;13.10;99.90
44513;DHT22;30219;50.588;9.504;2023-05-10T03:07:24;13.00;99.90
44513;DHT22;30219;50.588;9.504;2023-05-10T03:09:50;13.00;99.90
44513;DHT22;30219;50.588;9.504;2023-05-10T03:14:57;12.90;99.90
44513;DHT22;30219;50.588;9.504;2023-05-10T03:17:29;12.90;99.90
44513;DHT22;30219;50.588;9.504;2023-05-10T03:20:01;12.80;99.90
44513;DHT22;30219;50.588;9.504;2023-05-10T03:22:30;12.80;99.90
44513;DHT22;30219;50.588;9.504;2023-05-10T03:24:56;12.70;99.90
44513;DHT22;30219;50.588;9.504;2023-05-10T03:27:25;12.70;99.90
44513;DHT22;30219;50.588;9.504;2023-05-10T03:29:51;12.70;99.90
44513;DHT22;30219;50.588;9.504;2023-05-10T03:32:17;12.80;99.90
44513;DHT22;30219;50.588;9.504;2023-05-10T03:34:43;12.70;99.90
44513;DHT22;30219;50.588;9.504;2023-05-10T03:37:09;12.80;99.90
44513;DHT22;30219;50.588;9.504;2023-05-10T03:39:34;12.80;99.90
44513;DHT22;30219;50.588;9.504;2023-05-10T03:42:00;12.70;99.90
44513;DHT22;30219;50.588;9.504;2023-05-10T03:44:25;12.70;99.90
44513;DHT22;30219;50.588;9.504;2023-05-10T03:46:51;12.70;99.90
44513;DHT22;30219;50.588;9.504;2023-05-10T03:49:16;12.60;99.90
44513;DHT22;30219;50.588;9.504;2023-05-10T03:51:42;12.70;99.90
44513;DHT22;30219;50.588;9.504;2023-05-10T03:54:07;12.70;99.90
44513;DHT22;30219;50.588;9.504;2023-05-10T03:56:33;12.80;99.90
44513;DHT22;30219;50.588;9.504;2023-05-10T03:58:58;12.90;99.90
44513;DHT22;30219;50.588;9.504;2023-05-10T04:01:24;12.90;99.90
44513;DHT22;30219;50.588;9.504;2023-05-10T04:03:49;12.80;99.90
44513;DHT22;30219;50.588;9.504;2023-05-10T04:06:15;12.80;99.90
44513;DHT22;30219;50.588;9.504;2023-05-10T04:08:40;12.80;99.90
44513;DHT22;30219;50.588;9.504;2023-05-10T04:13:32;12.80;99.90
44513;DHT22;30219;50.588;9.504;2023-05-10T04:15:57;12.90;99.90
44513;DHT22;30219;50.588;9.504;2023-05-10T04:18:23;12.90;99.90
44513;DHT22;30219;50.588;9.504;2023-05-10T04:20:48;12.80;99.90
44513;DHT22;30219;50.588;9.504;2023-05-10T04:23:13;12.80;99.90
44513;DHT22;30219;50.588;9.504;2023-05-10T04:25:39;12.80;99.90
44513;DHT22;30219;50.588;9.504;2023-05-10T04:28:05;12.80;99.90
44513;DHT22;30219;50.588;9.504;2023-05-10T04:30:30;12.90;99.90
44513;DHT22;30219;50.588;9.504;2023-05-10T04:32:56;12.90;99.90
44513;DHT22;30219;50.588;9.504;2023-05-10T04:35:21;12.90;99.90
44513;DHT22;30219;50.588;9.504;2023-05-10T04:37:46;13.00;99.90
44513;DHT22;30219;50.588;9.504;2023-05-10T04:40:12;13.00;99.90
44513;DHT22;30219;50.588;9.504;2023-05-10T04:42:39;13.10;99.90
44513;DHT22;30219;50.588;9.504;2023-05-10T04:45:05;13.10;99.90
44513;DHT22;30219;50.588;9.504;2023-05-10T04:47:31;13.20;99.90
44513;DHT22;30219;50.588;9.504;2023-05-10T04:49:57;13.20;99.90
44513;DHT22;30219;50.588;9.504;2023-05-10T04:52:23;13.20;99.90
44513;DHT22;30219;50.588;9.504;2023-05-10T04:54:49;13.30;99.90
44513;DHT22;30219;50.588;9.504;2023-05-10T04:57:14;13.20;99.90
44513;DHT22;30219;50.588;9.504;2023-05-10T04:59:40;13.20;99.90
44513;DHT22;30219;50.588;9.504;2023-05-10T05:02:05;13.20;99.90
44513;DHT22;30219;50.588;9.504;2023-05-10T05:04:31;13.20;99.90
44513;DHT22;30219;50.588;9.504;2023-05-10T05:06:56;13.30;99.90
44513;DHT22;30219;50.588;9.504;2023-05-10T05:09:22;13.30;99.90
44513;DHT22;30219;50.588;9.504;2023-05-10T05:11:47;13.30;99.90
44513;DHT22;30219;50.588;9.504;2023-05-10T05:14:13;13.40;99.90
44513;DHT22;30219;50.588;9.504;2023-05-10T05:16:39;13.40;99.90
44513;DHT22;30219;50.588;9.504;2023-05-10T05:19:04;13.40;99.90
44513;DHT22;30219;50.588;9.504;2023-05-10T05:21:30;13.50;99.90
44513;DHT22;30219;50.588;9.504;2023-05-10T05:23:57;13.60;99.90
44513;DHT22;30219;50.588;9.504;2023-05-10T05:26:22;13.60;99.90
44513;DHT22;30219;50.588;9.504;2023-05-10T05:28:48;13.60;99.90
44513;DHT22;30219;50.588;9.504;2023-05-10T05:31:15;13.70;99.90
44513;DHT22;30219;50.588;9.504;2023-05-10T05:33:40;13.80;99.90
44513;DHT22;30219;50.588;9.504;2023-05-10T05:36:06;13.80;99.90
44513;DHT22;30219;50.588;9.504;2023-05-10T05:38:31;13.90;99.90
44513;DHT22;30219;50.588;9.504;2023-05-10T05:40:57;14.00;99.90
44513;DHT22;30219;50.588;9.504;2023-05-10T05:43:22;14.00;99.90
44513;DHT22;30219;50.588;9.504;2023-05-10T05:45:48;14.10;99.90
44513;DHT22;30219;50.588;9.504;2023-05-10T05:48:13;14.20;99.90
44513;DHT22;30219;50.588;9.504;2023-05-10T05:50:38;14.30;99.90
44513;DHT22;30219;50.588;9.504;2023-05-10T05:53:04;14.40;99.90
44513;DHT22;30219;50.588;9.504;2023-05-10T05:55:30;14.50;99.90
44513;DHT22;30219;50.588;9.504;2023-05-10T05:57:57;14.60;99.90
44513;DHT22;30219;50.588;9.504;2023-05-10T06:00:22;14.60;99.90
44513;DHT22;30219;50.588;9.504;2023-05-10T06:02:48;14.50;99.90
44513;DHT22;30219;50.588;9.504;2023-05-10T06:05:13;14.40;99.90
44513;DHT22;30219;50.588;9.504;2023-05-10T06:07:39;14.30;99.90
44513;DHT22;30219;50.588;9.504;2023-05-10T06:10:07;14.50;99.90
44513;DHT22;30219;50.588;9.504;2023-05-10T06:12:33;14.80;99.90
44513;DHT22;30219;50.588;9.504;2023-05-10T06:14:58;14.90;99.90
44513;DHT22;30219;50.588;9.504;2023-05-10T06:17:24;14.90;99.90
44513;DHT22;30219;50.588;9.504;2023-05-10T06:19:50;14.80;99.90
44513;DHT22;30219;50.588;9.504;2023-05-10T06:22:15;14.90;99.90
44513;DHT22;30219;50.588;9.504;2023-05-10T06:24:41;14.90;99.90
44513;DHT22;30219;50.588;9.504;2023-05-10T06:27:06;15.10;99.90
44513;DHT22;30219;50.588;9.504;2023-05-10T06:29:32;15.10;99.90
44513;DHT22;30219;50.588;9.504;2023-05-10T06:31:57;15.50;99.90
44513;DHT22;30219;50.588;9.504;2023-05-10T06:34:24;15.40;99.90
44513;DHT22;30219;50.588;9.504;2023-05-10T06:36:49;15.40;99.90
44513;DHT22;30219;50.588;9.504;2023-05-10T06:39:14;15.20;99.90
44513;DHT22;30219;50.588;9.504;2023-05-10T06:41:41;15.10;99.90
44513;DHT22;30219;50.588;9.504;2023-05-10T06:44:06;15.00;99.90
44513;DHT22;30219;50.588;9.504;2023-05-10T06:46:32;15.10;99.90
44513;DHT22;30219;50.588;9.504;2023-05-10T06:48:57;14.80;99.90
44513;DHT22;30219;50.588;9.504;2023-05-10T06:51:23;14.60;99.90
44513;DHT22;30219;50.588;9.504;2023-05-10T06:53:48;14.60;99.90
44513;DHT22;30219;50.588;9.504;2023-05-10T06:56:14;14.60;99.90
44513;DHT22;30219;50.588;9.504;2023-05-10T06:58:39;14.60;99.90
44513;DHT22;30219;50.588;9.504;2023-05-10T07:01:05;14.90;99.90
44513;DHT22;30219;50.588;9.504;2023-05-10T07:03:31;15.10;99.90
44513;DHT22;30219;50.588;9.504;2023-05-10T07:06:03;15.30;99.90
44513;DHT22;30219;50.588;9.504;2023-05-10T07:08:30;15.30;99.90
44513;DHT22;30219;50.588;9.504;2023-05-10T07:10:59;15.30;99.90
44513;DHT22;30219;50.588;9.504;2023-05-10T07:13:25;15.30;99.90
44513;DHT22;30219;50.588;9.504;2023-05-10T07:15:51;15.20;99.90
44513;DHT22;30219;50.588;9.504;2023-05-10T07:18:16;14.90;99.90
44513;DHT22;30219;50.588;9.504;2023-05-10T07:20:42;14.60;99.90
44513;DHT22;30219;50.588;9.504;2023-05-10T07:23:07;14.60;99.90
44513;DHT22;30219;50.588;9.504;2023-05-10T07:25:32;14.80;99.90
44513;DHT22;30219;50.588;9.504;2023-05-10T07:27:58;14.80;99.90
44513;DHT22;30219;50.588;9.504;2023-05-10T07:30:23;14.70;99.90
44513;DHT22;30219;50.588;9.504;2023-05-10T07:32:49;14.70;99.90
44513;DHT22;30219;50.588;9.504;2023-05-10T07:35:14;14.80;99.90
44513;DHT22;30219;50.588;9.504;2023-05-10T07:37:40;14.70;99.90
44513;DHT22;30219;50.588;9.504;2023-05-10T07:40:06;14.80;99.90
44513;DHT22;30219;50.588;9.504;2023-05-10T07:42:31;14.80;99.90
44513;DHT22;30219;50.588;9.504;2023-05-10T07:44:57;14.60;99.90
44513;DHT22;30219;50.588;9.504;2023-05-10T07:47:23;14.70;99.90
44513;DHT22;30219;50.588;9.504;2023-05-10T07:49:48;14.90;99.90
44513;DHT22;30219;50.588;9.504;2023-05-10T07:52:14;15.10;99.90
44513;DHT22;30219;50.588;9.504;2023-05-10T07:54:39;15.30;99.90
44513;DHT22;30219;50.588;9.504;2023-05-10T07:57:05;15.10;99.90
44513;DHT22;30219;50.588;9.504;2023-05-10T07:59:30;15.00;99.90
44513;DHT22;30219;50.588;9.504;2023-05-10T08:01:56;15.00;99.90
44513;DHT22;30219;50.588;9.504;2023-05-10T08:04:21;15.20;99.90
44513;DHT22;30219;50.588;9.504;2023-05-10T08:06:47;15.10;99.90
44513;DHT22;30219;50.588;9.504;2023-05-10T08:09:12;15.30;99.90
44513;DHT22;30219;50.588;9.504;2023-05-10T08:11:38;15.10;99.90
44513;DHT22;30219;50.588;9.504;2023-05-10T08:14:03;15.30;99.90
44513;DHT22;30219;50.588;9.504;2023-05-10T08:16:29;15.40;99.90
44513;DHT22;30219;50.588;9.504;2023-05-10T08:18:54;15.40;99.90
44513;DHT22;30219;50.588;9.504;2023-05-10T08:21:20;15.30;99.90
44513;DHT22;30219;50.588;9.504;2023-05-10T08:23:46;15.20;99.90
44513;DHT22;30219;50.588;9.504;2023-05-10T08:26:11;15.10;99.90
44513;DHT22;30219;50.588;9.504;2023-05-10T08:28:37;15.10;99.90
44513;DHT22;30219;50.588;9.504;2023-05-10T08:31:03;15.20;99.90
44513;DHT22;30219;50.588;9.504;2023-05-10T08:33:29;15.40;99.90
44513;DHT22;30219;50.588;9.504;2023-05-10T08:35:54;15.40;99.90
44513;DHT22;30219;50.588;9.504;2023-05-10T08:38:20;15.30;99.90
44513;DHT22;30219;50.588;9.504;2023-05-10T08:40:45;15.10;99.90
44513;DHT22;30219;50.588;9.504;2023-05-10T08:43:12;15.10;99.90
44513;DHT22;30219;50.588;9.504;2023-05-10T08:45:41;15.10;99.90
44513;DHT22;30219;50.588;9.504;2023-05-10T08:48:08;15.20;99.90
44513;DHT22;30219;50.588;9.504;2023-05-10T08:50:35;15.30;99.90
44513;DHT22;30219;50.588;9.504;2023-05-10T08:53:01;15.40;99.90
44513;DHT22;30219;50.588;9.504;2023-05-10T08:55:29;15.40;99.90
44513;DHT22;30219;50.588;9.504;2023-05-10T08:57:55;15.40;99.90
44513;DHT22;30219;50.588;9.504;2023-05-10T09:00:21;15.20;99.90
44513;DHT22;30219;50.588;9.504;2023-05-10T09:02:48;15.20;99.90
44513;DHT22;30219;50.588;9.504;2023-05-10T09:05:14;15.30;99.90
44513;DHT22;30219;50.588;9.504;2023-05-10T09:07:41;15.40;99.90
44513;DHT22;30219;50.588;9.504;2023-05-10T09:10:07;15.40;99.90
44513;DHT22;30219;50.588;9.504;2023-05-10T09:12:34;15.50;99.90
44513;DHT22;30219;50.588;9.504;2023-05-10T09:14:59;15.20;99.90
44513;DHT22;30219;50.588;9.504;2023-05-10T09:17:25;15.30;99.90
44513;DHT22;30219;50.588;9.504;2023-05-10T09:20:02;15.50;99.90
44513;DHT22;30219;50.588;9.504;2023-05-10T09:22:28;15.60;99.90
44513;DHT22;30219;50.588;9.504;2023-05-10T09:25:06;15.70;99.90
44513;DHT22;30219;50.588;9.504;2023-05-10T09:27:32;15.60;99.90
44513;DHT22;30219;50.588;9.504;2023-05-10T09:29:58;15.80;99.90
44513;DHT22;30219;50.588;9.504;2023-05-10T09:33:06;15.90;99.90
44513;DHT22;30219;50.588;9.504;2023-05-10T09:35:16;15.80;99.90
44513;DHT22;30219;50.588;9.504;2023-05-10T09:37:43;15.90;99.90
44513;DHT22;30219;50.588;9.504;2023-05-10T09:40:12;15.90;99.90
44513;DHT22;30219;50.588;9.504;2023-05-10T09:42:39;15.60;99.90
44513;DHT22;30219;50.588;9.504;2023-05-10T09:45:06;15.40;99.90
44513;DHT22;30219;50.588;9.504;2023-05-10T09:47:32;15.50;99.90
44513;DHT22;30219;50.588;9.504;2023-05-10T09:49:59;15.90;99.90
44513;DHT22;30219;50.588;9.504;2023-05-10T09:52:48;16.20;99.90
44513;DHT22;30219;50.588;9.504;2023-05-10T09:55:13;16.50;99.90
44513;DHT22;30219;50.588;9.504;2023-05-10T09:57:39;16.90;99.90
44513;DHT22;30219;50.588;9.504;2023-05-10T10:00:06;17.10;99.90
44513;DHT22;30219;50.588;9.504;2023-05-10T10:05:34;17.50;99.90
44513;DHT22;30219;50.588;9.504;2023-05-10T10:10:39;18.10;99.90
44513;DHT22;30219;50.588;9.504;2023-05-10T10:13:09;18.10;99.90
44513;DHT22;30219;50.588;9.504;2023-05-10T10:15:47;18.50;99.90
44513;DHT22;30219;50.588;9.504;2023-05-10T10:18:21;18.90;99.90
44513;DHT22;30219;50.588;9.504;2023-05-10T10:20:52;19.40;99.90
44513;DHT22;30219;50.588;9.504;2023-05-10T10:23:24;19.40;99.90
44513;DHT22;30219;50.588;9.504;2023-05-10T10:25:52;19.60;99.90
44513;DHT22;30219;50.588;9.504;2023-05-10T10:31:15;20.10;99.90
44513;DHT22;30219;50.588;9.504;2023-05-10T10:36:14;20.90;99.90
44513;DHT22;30219;50.588;9.504;2023-05-10T10:49:24;20.90;99.90
44513;DHT22;30219;50.588;9.504;2023-05-10T10:54:35;20.30;99.90
44513;DHT22;30219;50.588;9.504;2023-05-10T10:57:10;20.30;99.90
44513;DHT22;30219;50.588;9.504;2023-05-10T10:59:35;20.30;99.90
44513;DHT22;30219;50.588;9.504;2023-05-10T11:02:01;20.40;99.90
44513;DHT22;30219;50.588;9.504;2023-05-10T11:04:27;20.30;99.90
44513;DHT22;30219;50.588;9.504;2023-05-10T11:06:53;20.40;99.90
44513;DHT22;30219;50.588;9.504;2023-05-10T11:09:39;20.20;99.90
44513;DHT22;30219;50.588;9.504;2023-05-10T11:12:07;20.20;99.90
44513;DHT22;30219;50.588;9.504;2023-05-10T11:14:33;19.80;99.90
44513;DHT22;30219;50.588;9.504;2023-05-10T11:16:58;19.20;99.90
44513;DHT22;30219;50.588;9.504;2023-05-10T11:19:27;18.30;99.90
44513;DHT22;30219;50.588;9.504;2023-05-10T11:24:30;17.10;99.90
44513;DHT22;30219;50.588;9.504;2023-05-10T11:26:56;17.00;99.90
44513;DHT22;30219;50.588;9.504;2023-05-10T11:29:22;17.10;99.90
44513;DHT22;30219;50.588;9.504;2023-05-10T11:31:48;17.10;99.90
44513;DHT22;30219;50.588;9.504;2023-05-10T11:34:27;16.80;99.90
44513;DHT22;30219;50.588;9.504;2023-05-10T11:36:53;16.60;99.90
44513;DHT22;30219;50.588;9.504;2023-05-10T11:39:19;16.60;99.90
44513;DHT22;30219;50.588;9.504;2023-05-10T11:41:46;16.70;99.90
44513;DHT22;30219;50.588;9.504;2023-05-10T11:44:12;16.70;99.90
44513;DHT22;30219;50.588;9.504;2023-05-10T11:46:37;16.70;99.90
44513;DHT22;30219;50.588;9.504;2023-05-10T11:49:03;16.70;99.90
44513;DHT22;30219;50.588;9.504;2023-05-10T11:51:35;16.60;99.90
44513;DHT22;30219;50.588;9.504;2023-05-10T11:54:01;16.20;99.90
44513;DHT22;30219;50.588;9.504;2023-05-10T11:56:31;16.20;99.90
44513;DHT22;30219;50.588;9.504;2023-05-10T11:58:57;16.20;99.90
44513;DHT22;30219;50.588;9.504;2023-05-10T12:01:23;16.20;99.90
44513;DHT22;30219;50.588;9.504;2023-05-10T12:03:50;16.00;99.90
44513;DHT22;30219;50.588;9.504;2023-05-10T12:06:15;15.70;99.90
44513;DHT22;30219;50.588;9.504;2023-05-10T12:08:45;15.70;99.90
44513;DHT22;30219;50.588;9.504;2023-05-10T12:11:11;15.70;99.90
44513;DHT22;30219;50.588;9.504;2023-05-10T12:13:38;15.50;99.90
44513;DHT22;30219;50.588;9.504;2023-05-10T12:16:12;15.20;99.90
44513;DHT22;30219;50.588;9.504;2023-05-10T12:18:38;15.10;99.90
44513;DHT22;30219;50.588;9.504;2023-05-10T12:21:05;15.10;99.90
44513;DHT22;30219;50.588;9.504;2023-05-10T12:23:30;15.20;99.90
44513;DHT22;30219;50.588;9.504;2023-05-10T12:26:01;15.20;99.90
44513;DHT22;30219;50.588;9.504;2023-05-10T12:28:29;15.30;99.90
44513;DHT22;30219;50.588;9.504;2023-05-10T12:30:54;15.50;99.90
44513;DHT22;30219;50.588;9.504;2023-05-10T12:33:20;15.60;99.90
44513;DHT22;30219;50.588;9.504;2023-05-10T12:38:32;15.60;99.90
44513;DHT22;30219;50.588;9.504;2023-05-10T12:40:58;15.60;99.90
44513;DHT22;30219;50.588;9.504;2023-05-10T12:43:24;15.70;99.90
44513;DHT22;30219;50.588;9.504;2023-05-10T12:45:49;15.60;99.90
44513;DHT22;30219;50.588;9.504;2023-05-10T12:48:15;15.60;99.90
44513;DHT22;30219;50.588;9.504;2023-05-10T12:50:40;15.60;99.90
44513;DHT22;30219;50.588;9.504;2023-05-10T12:53:06;15.70;99.90
44513;DHT22;30219;50.588;9.504;2023-05-10T12:55:31;15.90;99.90
44513;DHT22;30219;50.588;9.504;2023-05-10T12:57:57;16.10;99.90
44513;DHT22;30219;50.588;9.504;2023-05-10T13:00:23;16.20;99.90
44513;DHT22;30219;50.588;9.504;2023-05-10T13:02:48;16.30;99.90
44513;DHT22;30219;50.588;9.504;2023-05-10T13:05:14;16.50;99.90
44513;DHT22;30219;50.588;9.504;2023-05-10T13:07:39;16.60;99.90
44513;DHT22;30219;50.588;9.504;2023-05-10T13:10:05;16.80;99.90
44513;DHT22;30219;50.588;9.504;2023-05-10T13:12:31;16.70;99.90
44513;DHT22;30219;50.588;9.504;2023-05-10T13:14:56;16.60;99.90
44513;DHT22;30219;50.588;9.504;2023-05-10T13:17:22;16.70;99.90
44513;DHT22;30219;50.588;9.504;2023-05-10T13:19:48;16.80;99.90
44513;DHT22;30219;50.588;9.504;2023-05-10T13:22:13;16.90;99.90
44513;DHT22;30219;50.588;9.504;2023-05-10T13:24:38;17.00;99.90
44513;DHT22;30219;50.588;9.504;2023-05-10T13:27:04;16.90;99.90
44513;DHT22;30219;50.588;9.504;2023-05-10T13:29:30;16.80;99.90
44513;DHT22;30219;50.588;9.504;2023-05-10T13:31:55;16.70;99.90
44513;DHT22;30219;50.588;9.504;2023-05-10T13:34:21;16.70;99.90
44513;DHT22;30219;50.588;9.504;2023-05-10T13:36:47;16.40;99.90
44513;DHT22;30219;50.588;9.504;2023-05-10T13:39:12;16.10;99.90
44513;DHT22;30219;50.588;9.504;2023-05-10T13:41:38;15.80;99.90
44513;DHT22;30219;50.588;9.504;2023-05-10T13:44:03;15.40;99.90
44513;DHT22;30219;50.588;9.504;2023-05-10T13:46:29;15.10;99.90
44513;DHT22;30219;50.588;9.504;2023-05-10T13:48:55;14.90;99.90
44513;DHT22;30219;50.588;9.504;2023-05-10T13:51:22;15.00;99.90
44513;DHT22;30219;50.588;9.504;2023-05-10T13:53:47;14.90;99.90
44513;DHT22;30219;50.588;9.504;2023-05-10T13:56:13;14.80;99.90
44513;DHT22;30219;50.588;9.504;2023-05-10T13:58:39;14.90;99.90
44513;DHT22;30219;50.588;9.504;2023-05-10T14:01:04;14.90;99.90
44513;DHT22;30219;50.588;9.504;2023-05-10T14:03:30;15.00;99.90
44513;DHT22;30219;50.588;9.504;2023-05-10T14:05:56;15.10;99.90
44513;DHT22;30219;50.588;9.504;2023-05-10T14:08:21;15.00;99.90
44513;DHT22;30219;50.588;9.504;2023-05-10T14:10:48;15.10;99.90
44513;DHT22;30219;50.588;9.504;2023-05-10T14:13:14;15.10;99.90
44513;DHT22;30219;50.588;9.504;2023-05-10T14:15:40;15.20;99.90
44513;DHT22;30219;50.588;9.504;2023-05-10T14:18:06;15.40;99.90
44513;DHT22;30219;50.588;9.504;2023-05-10T14:20:31;15.30;99.90
44513;DHT22;30219;50.588;9.504;2023-05-10T14:22:59;15.30;99.90
44513;DHT22;30219;50.588;9.504;2023-05-10T14:25:24;15.10;99.90
44513;DHT22;30219;50.588;9.504;2023-05-10T14:27:50;15.10;99.90
44513;DHT22;30219;50.588;9.504;2023-05-10T14:30:16;15.10;99.90
44513;DHT22;30219;50.588;9.504;2023-05-10T14:32:41;14.90;99.90
44513;DHT22;30219;50.588;9.504;2023-05-10T14:35:07;14.70;99.90
44513;DHT22;30219;50.588;9.504;2023-05-10T14:37:32;14.80;99.90
44513;DHT22;30219;50.588;9.504;2023-05-10T14:39:58;14.80;99.90
44513;DHT22;30219;50.588;9.504;2023-05-10T14:42:23;14.70;99.90
44513;DHT22;30219;50.588;9.504;2023-05-10T14:44:49;14.80;99.90
44513;DHT22;30219;50.588;9.504;2023-05-10T14:47:14;14.80;99.90
44513;DHT22;30219;50.588;9.504;2023-05-10T14:49:40;14.90;99.90
44513;DHT22;30219;50.588;9.504;2023-05-10T14:52:06;15.00;99.90
44513;DHT22;30219;50.588;9.504;2023-05-10T14:54:32;15.20;99.90
44513;DHT22;30219;50.588;9.504;2023-05-10T14:56:58;15.40;99.90
44513;DHT22;30219;50.588;9.504;2023-05-10T14:59:24;15.50;99.90
44513;DHT22;30219;50.588;9.504;2023-05-10T15:01:49;15.40;99.90
44513;DHT22;30219;50.588;9.504;2023-05-10T15:04:15;15.70;99.90
44513;DHT22;30219;50.588;9.504;2023-05-10T15:06:41;15.60;99.90
44513;DHT22;30219;50.588;9.504;2023-05-10T15:09:07;15.80;99.90
44513;DHT22;30219;50.588;9.504;2023-05-10T15:11:32;15.80;99.90
44513;DHT22;30219;50.588;9.504;2023-05-10T15:13:58;15.80;99.90
44513;DHT22;30219;50.588;9.504;2023-05-10T15:16:23;15.80;99.90
44513;DHT22;30219;50.588;9.504;2023-05-10T15:18:49;16.00;99.90
44513;DHT22;30219;50.588;9.504;2023-05-10T15:21:14;15.90;99.90
44513;DHT22;30219;50.588;9.504;2023-05-10T15:23:40;15.90;99.90
44513;DHT22;30219;50.588;9.504;2023-05-10T15:26:05;16.10;99.90
44513;DHT22;30219;50.588;9.504;2023-05-10T15:28:31;16.30;99.90
44513;DHT22;30219;50.588;9.504;2023-05-10T15:30:56;16.20;99.90
44513;DHT22;30219;50.588;9.504;2023-05-10T15:33:22;16.10;99.90
44513;DHT22;30219;50.588;9.504;2023-05-10T15:35:47;16.10;99.90
44513;DHT22;30219;50.588;9.504;2023-05-10T15:38:13;16.20;99.90
44513;DHT22;30219;50.588;9.504;2023-05-10T15:40:39;16.40;99.90
44513;DHT22;30219;50.588;9.504;2023-05-10T15:43:04;16.40;99.90
44513;DHT22;30219;50.588;9.504;2023-05-10T15:45:32;16.30;99.90
44513;DHT22;30219;50.588;9.504;2023-05-10T15:47:58;16.30;99.90
44513;DHT22;30219;50.588;9.504;2023-05-10T15:50:26;16.30;99.90
44513;DHT22;30219;50.588;9.504;2023-05-10T15:52:52;16.30;99.90
44513;DHT22;30219;50.588;9.504;2023-05-10T15:55:18;16.10;99.90
44513;DHT22;30219;50.588;9.504;2023-05-10T15:57:44;16.10;99.90
44513;DHT22;30219;50.588;9.504;2023-05-10T16:00:10;16.00;99.90
44513;DHT22;30219;50.588;9.504;2023-05-10T16:02:36;15.90;99.90
44513;DHT22;30219;50.588;9.504;2023-05-10T16:05:02;15.80;99.90
44513;DHT22;30219;50.588;9.504;2023-05-10T16:07:27;15.60;99.90
44513;DHT22;30219;50.588;9.504;2023-05-10T16:09:53;15.60;99.90